Time;durP1;ratioP1;P1;durP2;ratioP2;P2;SDS_P1;SDS_P2;PMS_P1;PMS_P2;Temp;Humidity;BMP_temperature;BMP_pressure;BME280_temperature;BME280_humidity;BME280_pressure;Samples;Min_cycle;Max_cycle;Signal;HPM_P1;HPM_P2
2023/10/07 00:00:26;;;;;;;4.75;3.00;;;19.30;66.00;;;;;;5042211;28;20052;-46
2023/10/07 00:02:53;;;;;;;5.57;3.08;;;19.30;65.70;;;;;;5048080;28;20159;-51
2023/10/07 00:05:26;;;;;;;3.95;2.63;;;19.30;65.90;;;;;;5030809;28;20112;-49
2023/10/07 00:07:52;;;;;;;4.95;2.47;;;19.30;66.00;;;;;;5050535;28;20032;-46
2023/10/07 00:10:25;;;;;;;3.90;2.70;;;19.30;65.90;;;;;;5046797;28;20119;-48
2023/10/07 00:12:52;;;;;;;4.75;2.78;;;19.30;66.00;;;;;;5052653;28;20025;-46
2023/10/07 00:15:21;;;;;;;5.32;3.00;;;19.30;65.90;;;;;;5047822;28;20043;-45
2023/10/07 00:17:47;;;;;;;5.10;3.30;;;19.30;65.90;;;;;;5050357;28;20078;-47
2023/10/07 00:20:13;;;;;;;3.90;2.45;;;19.30;65.90;;;;;;5043200;28;20036;-46
2023/10/07 00:22:41;;;;;;;7.65;3.35;;;19.30;65.90;;;;;;5044864;28;20361;-49
2023/10/07 00:25:07;;;;;;;9.82;2.85;;;19.30;66.20;;;;;;5047961;28;20622;-50
2023/10/07 00:27:38;;;;;;;8.70;3.08;;;19.30;66.40;;;;;;5046476;28;20090;-48
2023/10/07 00:30:16;;;;;;;7.90;2.97;;;19.30;66.40;;;;;;5048363;28;20421;-49
2023/10/07 00:32:50;;;;;;;5.10;3.00;;;19.40;66.20;;;;;;5047725;28;20060;-46
2023/10/07 00:35:19;;;;;;;8.55;3.42;;;19.40;66.10;;;;;;5029792;28;20197;-48
2023/10/07 00:37:45;;;;;;;6.00;3.15;;;19.40;66.10;;;;;;5050137;28;20037;-49
2023/10/07 00:40:15;;;;;;;3.67;2.40;;;19.40;65.80;;;;;;5047253;28;20116;-46
2023/10/07 00:42:45;;;;;;;5.25;2.97;;;19.40;66.50;;;;;;5047868;28;20051;-46
2023/10/07 00:45:16;;;;;;;6.88;2.97;;;19.40;65.90;;;;;;5037896;28;20084;-48
2023/10/07 00:47:43;;;;;;;3.80;2.55;;;19.40;65.90;;;;;;5047051;28;20029;-47
2023/10/07 00:50:09;;;;;;;4.68;2.15;;;19.40;65.90;;;;;;5047605;28;20040;-49
2023/10/07 00:52:55;;;;;;;4.20;2.83;;;19.40;65.70;;;;;;5043765;28;20032;-47
2023/10/07 00:55:34;;;;;;;5.07;2.40;;;19.40;65.80;;;;;;5043363;28;20111;-46
2023/10/07 00:58:21;;;;;;;5.55;3.17;;;19.40;65.70;;;;;;5047406;28;20067;-48
2023/10/07 01:00:55;;;;;;;5.07;2.75;;;19.40;65.60;;;;;;5044083;28;20524;-47
2023/10/07 01:03:47;;;;;;;4.47;2.50;;;19.40;65.60;;;;;;5044468;28;20033;-46
2023/10/07 01:06:10;;;;;;;5.03;2.45;;;19.40;65.50;;;;;;5047545;28;20517;-49
2023/10/07 01:08:41;;;;;;;3.67;2.33;;;19.40;65.60;;;;;;5044292;28;20047;-46
2023/10/07 01:11:10;;;;;;;5.22;2.90;;;19.40;65.50;;;;;;5029940;28;20750;-47
2023/10/07 01:13:36;;;;;;;6.97;2.97;;;19.40;65.30;;;;;;5032545;28;20409;-48
2023/10/07 01:16:08;;;;;;;4.50;2.13;;;19.40;65.40;;;;;;5052335;28;20111;-46
2023/10/07 01:18:38;;;;;;;14.25;3.30;;;19.40;65.70;;;;;;5044230;28;20044;-46
2023/10/07 01:21:11;;;;;;;4.85;3.08;;;19.40;65.80;;;;;;5045035;28;20174;-48
2023/10/07 01:23:39;;;;;;;6.18;3.78;;;19.40;65.80;;;;;;5046463;28;20040;-47
2023/10/07 01:26:14;;;;;;;4.30;2.08;;;19.40;65.90;;;;;;5047072;28;20029;-47
2023/10/07 01:28:43;;;;;;;;;;;19.40;65.70;;;;;;5028162;28;20037;-48
2023/10/07 01:31:18;;;;;;;3.15;2.45;;;19.40;65.90;;;;;;5045155;28;19971;-50
2023/10/07 01:33:47;;;;;;;4.73;2.30;;;19.40;65.80;;;;;;5047167;28;20516;-47
2023/10/07 01:36:19;;;;;;;7.32;3.35;;;19.40;65.70;;;;;;5048622;28;20056;-50
2023/10/07 01:38:48;;;;;;;4.45;2.25;;;19.40;65.90;;;;;;5049297;28;20081;-49
2023/10/07 01:41:18;;;;;;;4.05;2.35;;;19.40;65.90;;;;;;5047068;28;20033;-46
2023/10/07 01:44:00;;;;;;;5.18;3.08;;;19.40;66.00;;;;;;5047855;28;20040;-47
2023/10/07 01:46:32;;;;;;;5.47;2.55;;;19.40;66.40;;;;;;5048939;28;20032;-46
2023/10/07 01:49:11;;;;;;;16.20;3.58;;;19.40;66.00;;;;;;5049447;28;20055;-49
2023/10/07 01:51:38;;;;;;;9.02;3.08;;;19.40;66.00;;;;;;5042166;28;20048;-49
2023/10/07 01:54:04;;;;;;;6.35;2.60;;;19.40;66.00;;;;;;5030407;28;20033;-50
2023/10/07 01:56:31;;;;;;;5.50;2.08;;;19.40;65.90;;;;;;5047117;28;20777;-49
2023/10/07 01:59:09;;;;;;;4.85;2.58;;;19.40;65.90;;;;;;5049601;28;20037;-50
2023/10/07 02:01:35;;;;;;;3.63;2.45;;;19.40;65.80;;;;;;5049247;28;20029;-48
2023/10/07 02:04:06;;;;;;;4.22;2.40;;;19.40;65.90;;;;;;5047226;28;20048;-48
2023/10/07 02:06:42;;;;;;;5.18;2.92;;;19.40;65.60;;;;;;5049241;28;20029;-46
2023/10/07 02:09:08;;;;;;;6.45;2.47;;;19.40;65.70;;;;;;5044033;28;20059;-48
2023/10/07 02:11:36;;;;;;;3.38;2.20;;;19.40;65.70;;;;;;5039522;28;20029;-55
2023/10/07 02:14:02;;;;;;;3.40;2.30;;;19.40;65.70;;;;;;5054736;28;20119;-47
2023/10/07 02:16:28;;;;;;;5.05;2.15;;;19.40;65.70;;;;;;5047989;28;20120;-47
2023/10/07 02:18:53;;;;;;;5.57;2.53;;;19.40;65.70;;;;;;5042562;28;20554;-48
2023/10/07 02:21:20;;;;;;;5.53;2.42;;;19.40;65.70;;;;;;5043978;28;20044;-47
2023/10/07 02:23:47;;;;;;;5.85;3.33;;;19.40;65.70;;;;;;5042715;28;20022;-49
2023/10/07 02:28:43;;;;;;;4.82;2.30;;;19.40;65.60;;;;;;5045106;28;21796;-46
2023/10/07 02:31:15;;;;;;;3.47;2.10;;;19.50;65.80;;;;;;5048370;28;20124;-46
2023/10/07 02:33:42;;;;;;;5.80;2.55;;;19.40;65.70;;;;;;5047377;28;20117;-48
2023/10/07 02:36:14;;;;;;;5.28;2.30;;;19.40;65.80;;;;;;5046218;28;20497;-47
2023/10/07 02:38:43;;;;;;;4.43;2.15;;;19.40;65.70;;;;;;5045890;28;20466;-46
2023/10/07 02:41:25;;;;;;;5.30;2.22;;;19.40;65.70;;;;;;5051125;28;20025;-49
2023/10/07 02:43:51;;;;;;;4.53;2.55;;;19.40;65.70;;;;;;5048403;28;20035;-49
2023/10/07 02:46:33;;;;;;;6.15;2.70;;;19.40;65.70;;;;;;5048996;28;20045;-47
2023/10/07 02:49:10;;;;;;;13.07;3.22;;;19.40;66.00;;;;;;5041954;28;20502;-47
2023/10/07 02:51:45;;;;;;;8.43;2.58;;;19.40;66.00;;;;;;5037941;28;20544;-48
2023/10/07 02:54:16;;;;;;;8.50;3.15;;;19.50;66.10;;;;;;5044719;28;20493;-46
2023/10/07 02:56:53;;;;;;;8.50;2.20;;;19.40;65.90;;;;;;5044098;28;20048;-49
2023/10/07 02:59:28;;;;;;;10.05;2.70;;;19.40;65.90;;;;;;5045457;28;20029;-53
2023/10/07 03:02:12;;;;;;;2.88;2.10;;;19.40;65.90;;;;;;5049816;28;20032;-49
2023/10/07 03:04:42;;;;;;;4.25;2.05;;;19.50;65.80;;;;;;5046751;28;20028;-47
2023/10/07 03:07:14;;;;;;;5.55;3.00;;;19.50;65.90;;;;;;5027991;28;20033;-47
2023/10/07 03:10:32;;;;;;;3.03;2.08;;;19.50;65.60;;;;;;5043780;28;20116;-47
2023/10/07 03:12:36;;;;;;;3.78;2.33;;;19.40;65.70;;;;;;5044151;28;20051;-50
2023/10/07 03:15:20;;;;;;;3.92;2.10;;;19.50;65.70;;;;;;5052907;28;20093;-47
2023/10/07 03:17:46;;;;;;;4.95;2.90;;;19.40;65.60;;;;;;5039333;28;20022;-50
2023/10/07 03:20:28;;;;;;;3.25;1.98;;;19.40;65.50;;;;;;5030671;28;20464;-50
2023/10/07 03:28:30;;;;;;;3.72;2.40;;;19.50;65.70;;;;;;5028907;28;20029;-51
2023/10/07 03:30:56;;;;;;;4.00;2.28;;;19.50;65.90;;;;;;5048515;28;20029;-49
2023/10/07 03:33:32;;;;;;;4.72;2.33;;;19.50;65.70;;;;;;5049174;28;20067;-51
2023/10/07 03:38:29;;;;;;;3.50;2.28;;;19.50;65.70;;;;;;5046386;28;20043;-49
2023/10/07 03:40:56;;;;;;;4.95;2.90;;;19.50;65.90;;;;;;5034561;28;20028;-47
2023/10/07 03:43:28;;;;;;;5.28;2.28;;;19.40;65.90;;;;;;5029188;28;20037;-48
2023/10/07 03:45:55;;;;;;;3.55;2.13;;;19.50;66.00;;;;;;5043387;28;20045;-51
2023/10/07 03:48:24;;;;;;;4.70;2.78;;;19.50;66.00;;;;;;5046410;28;20044;-50
2023/10/07 03:51:09;;;;;;;5.40;3.03;;;19.50;65.90;;;;;;5041568;28;20029;-52
2023/10/07 03:53:44;;;;;;;4.30;2.28;;;19.40;65.90;;;;;;5018675;28;20120;-46
2023/10/07 03:56:11;;;;;;;4.63;2.50;;;19.50;65.80;;;;;;5049620;28;20387;-46
2023/10/07 03:58:36;;;;;;;5.78;2.88;;;19.50;65.80;;;;;;5046986;28;20354;-49
2023/10/07 04:01:16;;;;;;;6.28;2.63;;;19.50;65.80;;;;;;5049952;28;20112;-49
2023/10/07 04:03:46;;;;;;;4.97;2.42;;;19.40;65.80;;;;;;5027666;28;20448;-46
2023/10/07 04:06:14;;;;;;;5.40;2.63;;;19.50;65.80;;;;;;5048681;28;20040;-48
2023/10/07 04:08:40;;;;;;;3.72;2.30;;;19.40;65.60;;;;;;5048561;28;20040;-47
2023/10/07 04:11:13;;;;;;;3.00;2.15;;;19.40;65.70;;;;;;5052669;28;20032;-47
2023/10/07 04:13:39;;;;;;;5.93;2.42;;;19.40;65.50;;;;;;5047895;28;20033;-48
2023/10/07 04:16:14;;;;;;;4.13;2.60;;;19.40;65.70;;;;;;5043113;28;20060;-49
2023/10/07 04:18:40;;;;;;;3.45;2.22;;;19.40;65.60;;;;;;5039872;28;20114;-46
2023/10/07 04:21:06;;;;;;;5.05;2.38;;;19.40;65.60;;;;;;5049215;28;20060;-49
2023/10/07 04:23:32;;;;;;;4.22;2.72;;;19.50;65.50;;;;;;5044970;28;20062;-46
2023/10/07 04:26:10;;;;;;;3.65;2.58;;;19.40;65.70;;;;;;5048992;28;20104;-46
2023/10/07 04:28:39;;;;;;;5.82;3.10;;;19.40;65.50;;;;;;5047690;28;20346;-47
2023/10/07 04:31:09;;;;;;;6.65;2.40;;;19.40;65.80;;;;;;5051031;28;20032;-48
2023/10/07 04:33:47;;;;;;;4.63;3.33;;;19.40;65.90;;;;;;5047868;28;20045;-51
2023/10/07 04:36:14;;;;;;;3.88;2.35;;;19.50;65.70;;;;;;5043779;28;20498;-50
2023/10/07 04:38:53;;;;;;;4.55;2.83;;;19.40;65.70;;;;;;5025747;28;20028;-47
2023/10/07 04:43:59;;;;;;;4.38;2.53;;;19.40;65.30;;;;;;5042293;28;20030;-47
2023/10/07 04:46:42;;;;;;;4.18;2.83;;;19.40;65.50;;;;;;5045839;28;20142;-48
2023/10/07 04:49:14;;;;;;;2.90;2.08;;;19.40;65.50;;;;;;5022299;28;20044;-47
2023/10/07 04:54:10;;;;;;;4.30;2.50;;;19.40;65.50;;;;;;5048037;28;20077;-46
2023/10/07 04:56:36;;;;;;;5.90;2.75;;;19.40;65.80;;;;;;5046443;28;20102;-53
2023/10/07 04:59:06;;;;;;;3.80;2.80;;;19.40;65.90;;;;;;5049721;28;20041;-53
2023/10/07 05:01:34;;;;;;;5.40;2.20;;;19.40;65.80;;;;;;5045650;28;20721;-50
2023/10/07 05:04:04;;;;;;;5.32;2.70;;;19.40;65.70;;;;;;5046540;28;20125;-49
2023/10/07 05:06:37;;;;;;;4.25;2.40;;;19.40;65.60;;;;;;5046361;28;20090;-48
2023/10/07 05:09:10;;;;;;;6.20;2.65;;;19.40;65.50;;;;;;5041510;28;20036;-49
2023/10/07 05:11:40;;;;;;;6.32;2.80;;;19.40;65.60;;;;;;5030693;28;20029;-48
2023/10/07 05:14:17;;;;;;;10.00;3.60;;;19.40;65.90;;;;;;5044213;28;20025;-52
2023/10/07 05:16:46;;;;;;;5.57;2.90;;;19.40;65.60;;;;;;5025469;28;20032;-52
2023/10/07 05:19:22;;;;;;;5.68;2.95;;;19.40;65.70;;;;;;5039433;28;20067;-52
2023/10/07 05:24:38;;;;;;;7.05;2.58;;;19.40;65.80;;;;;;5039571;28;20063;-49
2023/10/07 05:27:04;;;;;;;7.43;3.08;;;19.40;65.90;;;;;;5049662;28;20184;-49
2023/10/07 05:29:30;;;;;;;10.32;3.38;;;19.40;66.50;;;;;;5048691;28;20055;-47
2023/10/07 05:31:57;;;;;;;14.48;4.13;;;19.40;65.90;;;;;;5047892;28;20532;-49
2023/10/07 05:34:28;;;;;;;6.13;2.60;;;19.40;66.60;;;;;;5045266;28;20090;-51
2023/10/07 05:37:01;;;;;;;6.13;2.67;;;19.40;65.40;;;;;;5047317;28;20449;-47
2023/10/07 05:39:27;;;;;;;5.20;2.60;;;19.40;65.70;;;;;;5044397;28;20025;-53
2023/10/07 05:41:53;;;;;;;10.45;3.13;;;19.40;65.70;;;;;;5045064;28;20033;-52
2023/10/07 05:44:20;;;;;;;6.63;2.80;;;19.40;65.80;;;;;;5042176;28;20542;-48
2023/10/07 05:46:45;;;;;;;6.68;3.03;;;19.40;65.70;;;;;;5041852;28;20039;-52
2023/10/07 05:49:11;;;;;;;5.32;2.55;;;19.40;65.60;;;;;;5047132;28;20041;-53
2023/10/07 05:51:37;;;;;;;4.97;2.50;;;19.30;65.70;;;;;;5042807;28;20033;-46
2023/10/07 05:54:05;;;;;;;7.72;3.13;;;19.30;65.70;;;;;;5046966;28;20303;-50
2023/10/07 05:56:30;;;;;;;8.02;2.72;;;19.40;65.80;;;;;;5049118;28;20040;-49
2023/10/07 05:58:57;;;;;;;8.88;3.67;;;19.40;66.60;;;;;;5048713;28;20028;-46
2023/10/07 06:01:24;;;;;;;13.50;3.33;;;19.40;65.90;;;;;;5044856;28;20029;-46
2023/10/07 06:03:51;;;;;;;7.45;2.65;;;19.40;66.20;;;;;;5040514;28;20026;-50
2023/10/07 06:06:18;;;;;;;7.03;2.85;;;19.50;65.90;;;;;;5040007;28;20346;-49
2023/10/07 06:08:43;;;;;;;10.60;3.22;;;19.50;65.20;;;;;;5051963;28;20078;-51
2023/10/07 06:11:10;;;;;;;6.90;2.88;;;19.40;65.50;;;;;;5047438;28;20589;-51
2023/10/07 06:13:37;;;;;;;6.00;2.47;;;19.40;65.20;;;;;;5038580;28;20788;-52
2023/10/07 06:16:06;;;;;;;7.72;2.72;;;19.40;65.30;;;;;;5025631;28;20045;-51
2023/10/07 06:18:34;;;;;;;4.78;2.85;;;19.40;65.20;;;;;;5044008;28;20501;-53
2023/10/07 06:21:19;;;;;;;6.18;3.50;;;19.40;65.20;;;;;;5047948;28;20190;-51
2023/10/07 06:23:45;;;;;;;5.78;2.70;;;19.40;64.80;;;;;;5046844;28;20486;-50
2023/10/07 06:26:12;;;;;;;4.97;2.42;;;19.30;65.00;;;;;;5047717;28;20033;-48
2023/10/07 06:28:44;;;;;;;6.97;2.85;;;19.40;65.00;;;;;;5024513;28;20059;-50
2023/10/07 06:31:10;;;;;;;6.25;2.47;;;19.40;65.20;;;;;;5044719;28;20036;-47
2023/10/07 06:33:39;;;;;;;4.85;2.70;;;19.40;65.00;;;;;;5047622;28;20114;-51
2023/10/07 06:36:07;;;;;;;9.15;3.00;;;19.30;64.90;;;;;;5044786;28;20082;-50
2023/10/07 06:38:33;;;;;;;5.43;3.22;;;19.40;64.90;;;;;;5049625;28;20032;-50
2023/10/07 06:40:59;;;;;;;7.60;3.00;;;19.30;64.80;;;;;;5046619;28;20505;-46
2023/10/07 06:43:25;;;;;;;5.03;2.95;;;19.30;65.00;;;;;;5043643;28;20041;-51
2023/10/07 06:45:54;;;;;;;6.30;3.78;;;19.30;64.70;;;;;;5042786;28;20437;-48
2023/10/07 06:48:24;;;;;;;8.43;4.22;;;19.30;64.80;;;;;;5044997;28;20036;-48
2023/10/07 06:50:52;;;;;;;9.70;4.70;;;19.30;64.80;;;;;;5047248;28;20029;-49
2023/10/07 06:53:22;;;;;;;7.88;4.30;;;19.30;64.60;;;;;;5049913;28;20129;-50
2023/10/07 06:55:49;;;;;;;10.55;4.38;;;19.30;64.80;;;;;;5048093;28;21233;-49
2023/10/07 06:58:14;;;;;;;7.28;4.22;;;19.30;64.60;;;;;;5031670;28;20037;-47
2023/10/07 07:00:47;;;;;;;7.10;4.07;;;19.30;64.70;;;;;;5044997;28;20094;-47
2023/10/07 07:03:19;;;;;;;8.98;4.93;;;19.20;64.80;;;;;;5038643;28;20407;-49
2023/10/07 07:05:45;;;;;;;6.50;4.18;;;19.30;64.80;;;;;;5052426;28;20031;-49
2023/10/07 07:08:14;;;;;;;7.38;3.92;;;19.30;64.60;;;;;;5051340;28;20029;-47
2023/10/07 07:10:40;;;;;;;9.20;4.28;;;19.30;64.70;;;;;;5040981;28;20057;-50
2023/10/07 07:13:13;;;;;;;9.20;4.82;;;19.30;64.50;;;;;;5051199;28;20036;-50
2023/10/07 07:15:41;;;;;;;7.97;5.15;;;19.30;64.70;;;;;;5049105;28;20056;-50
2023/10/07 07:18:14;;;;;;;6.20;4.60;;;19.30;64.70;;;;;;5051248;28;20060;-48
2023/10/07 07:23:22;;;;;;;7.03;4.03;;;19.20;64.70;;;;;;5049627;28;20095;-50
2023/10/07 07:28:32;;;;;;;6.60;4.32;;;19.20;64.50;;;;;;5046946;28;20029;-49
2023/10/07 07:30:59;;;;;;;7.65;4.10;;;19.20;64.50;;;;;;5051169;28;20486;-49
2023/10/07 07:33:29;;;;;;;8.32;4.25;;;19.20;63.80;;;;;;5041570;28;20033;-47
2023/10/07 07:35:57;;;;;;;8.25;4.20;;;19.20;64.50;;;;;;5033438;28;20059;-50
2023/10/07 07:38:29;;;;;;;5.82;4.00;;;19.20;64.60;;;;;;5051541;28;20190;-48
2023/10/07 07:41:06;;;;;;;6.85;3.95;;;19.20;64.60;;;;;;5040720;28;20033;-49
2023/10/07 07:43:39;;;;;;;5.43;3.75;;;19.20;64.50;;;;;;5044500;28;20054;-48
2023/10/07 07:46:18;;;;;;;6.25;3.78;;;19.20;64.10;;;;;;5042202;28;20056;-49
2023/10/07 07:48:45;;;;;;;5.75;3.95;;;19.20;64.50;;;;;;5048912;28;20103;-46
2023/10/07 07:51:11;;;;;;;7.95;3.83;;;19.20;64.30;;;;;;5051243;28;20071;-47
2023/10/07 07:53:40;;;;;;;6.32;3.90;;;19.20;64.40;;;;;;5054630;28;20036;-51
2023/10/07 07:56:08;;;;;;;6.35;4.05;;;19.20;64.40;;;;;;5053654;28;20032;-50
2023/10/07 07:58:37;;;;;;;6.22;3.80;;;19.20;64.40;;;;;;5049752;28;20043;-49
2023/10/07 08:01:04;;;;;;;6.07;3.92;;;19.20;64.40;;;;;;5046415;28;20076;-49
2023/10/07 08:03:30;;;;;;;6.57;3.92;;;19.20;64.50;;;;;;5047457;28;20280;-47
2023/10/07 08:05:56;;;;;;;6.32;3.20;;;19.20;64.10;;;;;;5055693;28;22743;-48
2023/10/07 08:08:29;;;;;;;7.18;4.35;;;19.10;64.40;;;;;;5025209;28;20237;-50
2023/10/07 08:10:55;;;;;;;7.32;3.78;;;19.10;64.40;;;;;;5040276;28;20102;-48
2023/10/07 08:13:27;;;;;;;6.40;3.58;;;19.10;64.40;;;;;;5046485;28;20037;-48
2023/10/07 08:15:56;;;;;;;7.90;3.83;;;19.10;64.20;;;;;;5045139;28;20068;-49
2023/10/07 08:18:28;;;;;;;6.25;3.38;;;19.10;64.40;;;;;;5050465;28;20040;-48
2023/10/07 08:21:07;;;;;;;5.60;3.47;;;19.10;64.40;;;;;;5048349;28;20032;-47
2023/10/07 08:23:36;;;;;;;7.30;3.72;;;19.10;64.30;;;;;;5047510;28;20066;-49
2023/10/07 08:26:12;;;;;;;7.10;4.00;;;19.20;64.30;;;;;;5049755;28;20285;-47
2023/10/07 08:28:43;;;;;;;7.05;3.50;;;19.20;64.30;;;;;;5044368;28;20028;-48
2023/10/07 08:31:37;;;;;;;6.32;3.90;;;19.10;64.50;;;;;;5045738;28;20048;-50
2023/10/07 08:36:33;;;;;;;5.90;3.72;;;19.10;64.40;;;;;;5047612;28;20044;-47
2023/10/07 08:38:59;;;;;;;5.93;3.72;;;19.10;64.30;;;;;;5044689;28;20544;-48
2023/10/07 08:41:27;;;;;;;5.80;3.90;;;19.10;64.30;;;;;;5045688;28;20032;-47
2023/10/07 08:44:13;;;;;;;5.18;4.07;;;19.10;64.30;;;;;;5044747;28;20421;-50
2023/10/07 08:46:49;;;;;;;6.95;4.07;;;19.10;64.40;;;;;;5045295;28;20029;-47
2023/10/07 08:49:25;;;;;;;7.20;3.85;;;19.10;64.40;;;;;;5049549;28;20049;-47
2023/10/07 08:51:55;;;;;;;6.80;4.18;;;19.10;64.40;;;;;;5049685;28;20024;-50
2023/10/07 08:54:31;;;;;;;6.50;3.88;;;19.10;64.30;;;;;;5043622;28;20040;-47
2023/10/07 08:57:02;;;;;;;6.45;4.22;;;19.10;64.50;;;;;;5045839;28;20201;-52
2023/10/07 08:59:31;;;;;;;8.70;4.10;;;19.10;64.80;;;;;;5051940;28;20498;-50
2023/10/07 09:01:57;;;;;;;5.78;3.83;;;19.10;64.60;;;;;;5027947;28;20037;-49
2023/10/07 09:04:32;;;;;;;9.65;4.45;;;19.10;64.40;;;;;;5049902;28;20038;-50
2023/10/07 09:06:59;;;;;;;7.95;4.57;;;19.10;64.80;;;;;;5026523;28;20128;-49
2023/10/07 09:09:38;;;;;;;9.10;5.22;;;19.10;64.70;;;;;;5041518;28;20039;-47
2023/10/07 09:12:15;;;;;;;9.65;4.63;;;19.10;64.60;;;;;;5040787;28;20068;-48
2023/10/07 09:14:52;;;;;;;10.80;5.07;;;19.10;64.50;;;;;;5043822;28;20585;-50
2023/10/07 09:17:23;;;;;;;6.53;4.00;;;19.10;64.70;;;;;;5044567;28;20298;-51
2023/10/07 09:19:52;;;;;;;7.80;4.63;;;19.10;64.50;;;;;;5047313;28;20031;-47
2023/10/07 09:22:24;;;;;;;8.13;4.40;;;19.10;64.90;;;;;;5050493;28;20033;-46
2023/10/07 09:25:01;;;;;;;6.88;4.35;;;19.10;64.70;;;;;;5048409;28;20029;-50
2023/10/07 09:27:36;;;;;;;10.93;4.78;;;19.10;64.70;;;;;;5045539;28;20028;-50
2023/10/07 09:30:15;;;;;;;;;;;19.10;64.80;;;;;;5037591;28;20462;-50
2023/10/07 09:32:44;;;;;;;9.05;4.50;;;19.10;64.90;;;;;;5045517;28;19912;-49
2023/10/07 09:35:19;;;;;;;10.55;4.97;;;19.10;64.70;;;;;;5046383;28;20040;-48
2023/10/07 09:37:46;;;;;;;7.32;4.38;;;19.10;64.80;;;;;;5041965;28;21000;-53
2023/10/07 09:41:07;;;;;;;10.00;5.50;;;19.10;64.80;;;;;;5042785;28;20032;-48
2023/10/07 09:43:13;;;;;;;7.88;5.05;;;19.00;64.80;;;;;;5048073;28;20040;-50
2023/10/07 09:45:38;;;;;;;9.23;4.95;;;19.00;64.80;;;;;;5044041;28;20037;-47
2023/10/07 09:48:09;;;;;;;7.95;4.20;;;19.00;64.80;;;;;;5046196;23;20052;-47
2023/10/07 09:50:37;;;;;;;10.07;5.25;;;19.00;64.60;;;;;;5018217;28;20088;-46
2023/10/07 09:53:32;;;;;;;7.88;4.50;;;19.00;64.90;;;;;;5025152;28;20025;-52
2023/10/07 09:56:21;;;;;;;8.23;5.10;;;19.00;64.80;;;;;;5040507;28;20120;-47
2023/10/07 09:59:15;;;;;;;7.72;4.57;;;19.00;65.10;;;;;;5022831;28;20040;-47
2023/10/07 10:02:05;;;;;;;8.50;5.00;;;19.00;65.10;;;;;;5025076;28;20037;-48
2023/10/07 10:05:11;;;;;;;8.13;4.40;;;19.00;65.20;;;;;;5020759;28;20409;-50
2023/10/07 10:08:10;;;;;;;9.30;4.80;;;19.00;64.50;;;;;;5016089;28;20033;-48
2023/10/07 10:10:44;;;;;;;8.57;4.40;;;19.00;65.10;;;;;;5017355;28;20041;-51
2023/10/07 10:13:28;;;;;;;9.68;4.38;;;19.00;65.00;;;;;;5024734;28;20433;-49
2023/10/07 10:15:59;;;;;;;10.60;4.55;;;19.00;65.00;;;;;;5023399;28;20038;-48
2023/10/07 10:18:40;;;;;;;8.88;4.15;;;19.00;65.30;;;;;;5024734;28;20037;-51
2023/10/07 10:21:12;;;;;;;8.63;4.38;;;19.10;65.20;;;;;;5029551;28;20040;-46
2023/10/07 10:23:40;;;;;;;4.70;3.22;;;19.10;64.90;;;;;;5020830;28;20037;-55
2023/10/07 10:26:15;;;;;;;7.20;4.00;;;19.00;65.10;;;;;;5020472;28;20034;-51
2023/10/07 10:28:42;;;;;;;7.85;4.32;;;19.10;65.20;;;;;;5022334;28;20056;-47
2023/10/07 10:31:36;;;;;;;6.63;4.20;;;19.10;65.10;;;;;;5020496;28;20217;-48
2023/10/07 10:34:05;;;;;;;7.30;4.60;;;19.10;65.20;;;;;;5008426;28;20034;-49
2023/10/07 10:36:43;;;;;;;8.50;3.83;;;19.10;65.30;;;;;;5016211;28;20064;-48
2023/10/07 10:39:18;;;;;;;7.93;4.35;;;19.10;65.30;;;;;;5022239;28;23189;-49
2023/10/07 10:41:44;;;;;;;8.40;4.13;;;19.00;65.10;;;;;;5023962;28;20065;-52
2023/10/07 10:44:12;;;;;;;6.88;3.78;;;19.00;65.30;;;;;;5030663;28;20116;-50
2023/10/07 10:46:45;;;;;;;5.57;3.65;;;19.00;65.30;;;;;;5026983;28;20033;-48
2023/10/07 10:49:16;;;;;;;7.10;3.97;;;19.00;65.00;;;;;;5029449;28;20044;-46
2023/10/07 10:51:48;;;;;;;7.65;3.88;;;19.00;65.30;;;;;;5027188;28;20034;-46
2023/10/07 10:54:15;;;;;;;5.90;3.72;;;19.10;65.30;;;;;;5027284;28;20120;-48
2023/10/07 10:56:58;;;;;;;7.53;3.92;;;19.10;65.10;;;;;;5026790;28;20037;-50
2023/10/07 10:59:42;;;;;;;6.20;3.47;;;19.00;65.20;;;;;;5026025;28;20038;-51
2023/10/07 11:02:12;;;;;;;7.88;4.45;;;19.00;65.20;;;;;;5025352;28;20028;-47
2023/10/07 11:04:38;;;;;;;6.68;4.03;;;19.00;65.10;;;;;;5019319;28;20021;-47
2023/10/07 11:07:07;;;;;;;7.55;4.10;;;19.00;65.10;;;;;;5023499;28;20100;-46
2023/10/07 11:09:37;;;;;;;5.72;3.70;;;19.00;65.00;;;;;;5025172;28;20025;-53
2023/10/07 11:12:09;;;;;;;6.57;4.43;;;19.00;65.10;;;;;;5026174;28;20530;-47
2023/10/07 11:14:39;;;;;;;7.68;4.07;;;19.00;65.00;;;;;;5029398;28;20029;-49
2023/10/07 11:17:05;;;;;;;5.22;3.58;;;19.00;65.00;;;;;;5028000;28;20036;-52
2023/10/07 11:19:31;;;;;;;5.78;4.28;;;18.90;64.90;;;;;;5027502;28;20241;-49
2023/10/07 11:21:57;;;;;;;7.05;4.43;;;18.90;65.00;;;;;;5027666;28;20033;-53
2023/10/07 11:24:28;;;;;;;7.72;4.28;;;19.00;64.90;;;;;;5046006;28;20453;-46
2023/10/07 11:26:59;;;;;;;8.55;4.03;;;18.90;64.80;;;;;;5020934;28;20065;-47
2023/10/07 11:29:32;;;;;;;7.90;3.90;;;18.90;65.00;;;;;;5031295;28;20036;-53
2023/10/07 11:32:08;;;;;;;5.97;3.92;;;18.90;64.80;;;;;;5018769;28;20080;-48
2023/10/07 11:34:36;;;;;;;6.93;4.20;;;18.90;64.80;;;;;;5024093;28;20033;-48
2023/10/07 11:37:13;;;;;;;6.53;3.50;;;18.90;64.80;;;;;;5020795;28;20030;-50
2023/10/07 11:39:47;;;;;;;8.10;4.53;;;18.90;64.80;;;;;;5024432;28;20128;-48
2023/10/07 11:42:14;;;;;;;8.93;4.85;;;18.90;64.80;;;;;;5029830;28;20045;-48
2023/10/07 11:44:41;;;;;;;7.57;3.95;;;18.90;64.70;;;;;;5025188;28;20029;-49
2023/10/07 11:47:07;;;;;;;7.72;4.57;;;18.90;64.80;;;;;;5028527;28;20758;-46
2023/10/07 11:49:36;;;;;;;6.55;3.97;;;18.90;64.80;;;;;;5031680;28;20746;-48
2023/10/07 11:52:05;;;;;;;6.22;4.18;;;18.90;64.80;;;;;;5038122;28;20062;-50
2023/10/07 11:54:37;;;;;;;7.40;3.50;;;18.90;64.90;;;;;;5029373;28;20044;-46
2023/10/07 11:57:06;;;;;;;7.70;3.90;;;18.80;64.90;;;;;;5024585;28;20065;-48
2023/10/07 11:59:40;;;;;;;5.85;3.78;;;18.90;65.10;;;;;;5024137;28;20039;-49
2023/10/07 12:02:14;;;;;;;6.97;3.80;;;19.00;65.30;;;;;;5023680;28;20033;-51
2023/10/07 12:04:48;;;;;;;7.13;4.30;;;18.90;65.20;;;;;;5021281;28;20039;-51
2023/10/07 12:07:17;;;;;;;6.80;3.70;;;19.00;65.40;;;;;;5025882;28;20033;-48
2023/10/07 12:09:46;;;;;;;7.22;4.05;;;19.00;65.30;;;;;;5022657;28;20491;-47
2023/10/07 12:12:13;;;;;;;6.30;3.53;;;19.00;65.20;;;;;;5028380;28;20044;-49
2023/10/07 12:14:39;;;;;;;10.07;3.80;;;19.00;65.30;;;;;;5026699;28;20549;-46
2023/10/07 12:17:04;;;;;;;7.57;4.25;;;19.00;65.30;;;;;;5030207;28;20041;-50
2023/10/07 12:19:31;;;;;;;8.68;4.18;;;19.00;65.30;;;;;;5026850;28;20091;-50
2023/10/07 12:21:59;;;;;;;8.70;3.83;;;19.00;65.30;;;;;;5024383;28;20112;-50
2023/10/07 12:24:24;;;;;;;7.68;4.78;;;19.00;65.20;;;;;;5023713;28;20083;-50
2023/10/07 12:26:54;;;;;;;10.48;3.72;;;19.00;65.20;;;;;;5028452;28;20037;-46
2023/10/07 12:29:20;;;;;;;14.60;3.88;;;19.00;65.10;;;;;;5026438;28;20529;-52
2023/10/07 12:31:47;;;;;;;9.35;3.85;;;19.00;65.10;;;;;;5020561;28;20033;-46
2023/10/07 12:34:16;;;;;;;8.63;4.43;;;19.00;65.20;;;;;;5023039;28;20537;-47
2023/10/07 12:36:45;;;;;;;9.43;4.07;;;19.00;65.20;;;;;;5023863;28;20041;-49
2023/10/07 12:39:11;;;;;;;5.30;3.20;;;19.00;65.30;;;;;;5028245;28;20037;-44
2023/10/07 12:41:40;;;;;;;6.63;4.00;;;19.00;65.20;;;;;;5026385;28;20099;-51
2023/10/07 12:44:08;;;;;;;9.00;3.60;;;19.00;65.20;;;;;;5031027;28;20033;-49
2023/10/07 12:46:38;;;;;;;5.15;3.30;;;19.00;65.20;;;;;;5022083;28;20033;-46
2023/10/07 12:49:09;;;;;;;5.43;3.40;;;19.10;65.30;;;;;;5023848;28;20045;-48
2023/10/07 12:51:36;;;;;;;6.45;3.80;;;19.00;65.10;;;;;;5022108;28;20096;-49
2023/10/07 12:54:03;;;;;;;6.82;3.72;;;19.00;65.20;;;;;;5033000;28;20097;-49
2023/10/07 12:56:31;;;;;;;4.50;3.47;;;19.00;65.20;;;;;;5024995;28;20030;-45
2023/10/07 12:58:56;;;;;;;6.35;3.03;;;19.10;65.20;;;;;;5018245;28;20033;-48
2023/10/07 13:01:22;;;;;;;6.07;3.28;;;19.00;65.20;;;;;;5026193;28;20036;-46
2023/10/07 13:03:48;;;;;;;6.10;3.70;;;19.00;65.30;;;;;;5022935;28;20049;-46
2023/10/07 13:06:17;;;;;;;5.47;3.58;;;19.10;65.30;;;;;;5027947;28;20042;-46
2023/10/07 13:08:43;;;;;;;6.53;3.53;;;19.00;65.30;;;;;;5025367;28;20114;-50
2023/10/07 13:11:13;;;;;;;6.95;3.28;;;19.00;65.60;;;;;;5029436;28;20055;-46
2023/10/07 13:13:46;;;;;;;5.38;3.05;;;19.00;65.40;;;;;;5028369;28;20088;-46
2023/10/07 13:16:12;;;;;;;5.55;3.17;;;19.00;65.40;;;;;;5019362;28;20048;-47
2023/10/07 13:18:42;;;;;;;5.60;3.42;;;19.00;65.60;;;;;;5019958;28;20059;-49
2023/10/07 13:21:13;;;;;;;5.78;3.60;;;19.00;65.60;;;;;;5021977;28;20029;-48
2023/10/07 13:23:44;;;;;;;5.63;3.13;;;19.00;65.60;;;;;;5026131;28;20063;-47
2023/10/07 13:26:10;;;;;;;6.97;3.25;;;19.00;65.40;;;;;;5017410;28;20025;-49
2023/10/07 13:28:37;;;;;;;5.97;3.22;;;19.10;65.60;;;;;;5020630;28;20395;-47
2023/10/07 13:31:07;;;;;;;6.10;3.10;;;19.00;65.80;;;;;;5020171;28;20548;-46